sensor_id;sensor_type;location;lat;lon;timestamp;noise_LAeq;noise_LA_min;noise_LA_max;noise_LA01;noise_LA95
53135;Laerm;40912;51.552;9.874;2023-05-07T00:05:07;48.11;46.87;51.22;;
53135;Laerm;40912;51.552;9.874;2023-05-07T00:07:27;48.18;47.10;51.53;;
53135;Laerm;40912;51.552;9.874;2023-05-07T00:09:48;48.18;47.08;51.00;;
53135;Laerm;40912;51.552;9.874;2023-05-07T00:12:08;48.19;46.93;50.00;;
53135;Laerm;40912;51.552;9.874;2023-05-07T00:14:28;48.16;46.89;51.26;;
53135;Laerm;40912;51.552;9.874;2023-05-07T00:16:48;48.15;47.18;51.60;;
53135;Laerm;40912;51.552;9.874;2023-05-07T00:19:08;48.17;47.06;50.87;;
53135;Laerm;40912;51.552;9.874;2023-05-07T00:21:29;48.13;46.93;51.13;;
53135;Laerm;40912;51.552;9.874;2023-05-07T00:23:50;48.13;47.16;49.24;;
53135;Laerm;40912;51.552;9.874;2023-05-07T00:26:10;48.14;47.10;51.27;;
53135;Laerm;40912;51.552;9.874;2023-05-07T00:28:30;48.12;46.95;51.00;;
53135;Laerm;40912;51.552;9.874;2023-05-07T00:30:51;48.14;47.04;51.31;;
53135;Laerm;40912;51.552;9.874;2023-05-07T00:33:11;48.14;47.06;49.25;;
53135;Laerm;40912;51.552;9.874;2023-05-07T00:35:31;48.15;47.07;49.27;;
53135;Laerm;40912;51.552;9.874;2023-05-07T00:37:51;48.14;47.20;49.14;;
53135;Laerm;40912;51.552;9.874;2023-05-07T00:40:11;48.13;47.10;49.18;;
53135;Laerm;40912;51.552;9.874;2023-05-07T00:42:32;48.13;47.08;51.08;;
53135;Laerm;40912;51.552;9.874;2023-05-07T00:47:12;48.15;47.04;51.63;;
53135;Laerm;40912;51.552;9.874;2023-05-07T00:49:43;48.17;47.10;51.50;;
53135;Laerm;40912;51.552;9.874;2023-05-07T00:54:23;48.15;47.04;51.49;;
53135;Laerm;40912;51.552;9.874;2023-05-07T00:56:44;48.15;47.10;51.53;;
53135;Laerm;40912;51.552;9.874;2023-05-07T00:59:05;48.14;47.16;51.39;;
53135;Laerm;40912;51.552;9.874;2023-05-07T01:01:25;48.16;47.10;51.29;;
53135;Laerm;40912;51.552;9.874;2023-05-07T01:03:46;48.14;46.89;50.15;;
53135;Laerm;40912;51.552;9.874;2023-05-07T01:06:06;48.15;47.20;49.23;;
53135;Laerm;40912;51.552;9.874;2023-05-07T01:08:27;48.15;47.12;51.47;;
53135;Laerm;40912;51.552;9.874;2023-05-07T01:10:49;48.16;47.06;51.14;;
53135;Laerm;40912;51.552;9.874;2023-05-07T01:13:10;48.16;47.12;51.47;;
53135;Laerm;40912;51.552;9.874;2023-05-07T01:15:32;48.17;47.08;51.04;;
53135;Laerm;40912;51.552;9.874;2023-05-07T01:17:52;48.16;46.89;51.43;;
53135;Laerm;40912;51.552;9.874;2023-05-07T01:22:34;48.16;47.10;51.08;;
53135;Laerm;40912;51.552;9.874;2023-05-07T01:24:56;48.18;47.00;49.16;;
53135;Laerm;40912;51.552;9.874;2023-05-07T01:27:17;48.18;47.04;51.38;;
53135;Laerm;40912;51.552;9.874;2023-05-07T01:29:37;48.18;46.93;51.41;;
53135;Laerm;40912;51.552;9.874;2023-05-07T01:31:58;48.20;47.22;50.95;;
53135;Laerm;40912;51.552;9.874;2023-05-07T01:34:18;48.22;47.14;51.22;;
53135;Laerm;40912;51.552;9.874;2023-05-07T01:36:39;48.19;47.20;51.18;;
53135;Laerm;40912;51.552;9.874;2023-05-07T01:39:02;48.19;46.89;49.25;;
53135;Laerm;40912;51.552;9.874;2023-05-07T01:41:22;48.15;47.02;51.57;;
53135;Laerm;40912;51.552;9.874;2023-05-07T01:50:43;48.16;47.08;51.32;;
53135;Laerm;40912;51.552;9.874;2023-05-07T01:55:24;48.15;47.06;51.30;;
53135;Laerm;40912;51.552;9.874;2023-05-07T01:57:44;48.14;46.84;51.05;;
53135;Laerm;40912;51.552;9.874;2023-05-07T02:00:05;48.14;46.97;50.84;;
53135;Laerm;40912;51.552;9.874;2023-05-07T02:02:25;48.13;47.00;51.13;;
53135;Laerm;40912;51.552;9.874;2023-05-07T02:04:45;48.14;47.00;51.51;;
53135;Laerm;40912;51.552;9.874;2023-05-07T02:07:05;48.16;47.08;51.22;;
53135;Laerm;40912;51.552;9.874;2023-05-07T02:09:26;48.13;47.10;51.10;;
53135;Laerm;40912;51.552;9.874;2023-05-07T02:11:46;48.13;47.04;49.27;;
53135;Laerm;40912;51.552;9.874;2023-05-07T02:14:06;48.13;47.00;51.00;;
53135;Laerm;40912;51.552;9.874;2023-05-07T02:16:26;48.15;47.16;51.17;;
53135;Laerm;40912;51.552;9.874;2023-05-07T02:21:25;48.15;47.00;49.15;;
53135;Laerm;40912;51.552;9.874;2023-05-07T02:23:45;48.18;47.14;49.19;;
53135;Laerm;40912;51.552;9.874;2023-05-07T02:28:26;48.18;47.08;51.26;;
53135;Laerm;40912;51.552;9.874;2023-05-07T02:30:46;48.16;47.08;51.21;;
53135;Laerm;40912;51.552;9.874;2023-05-07T02:33:06;48.17;46.97;51.77;;
53135;Laerm;40912;51.552;9.874;2023-05-07T02:35:28;48.19;46.97;51.62;;
53135;Laerm;40912;51.552;9.874;2023-05-07T02:37:48;48.18;47.08;51.39;;
53135;Laerm;40912;51.552;9.874;2023-05-07T02:40:09;48.14;47.06;49.18;;
53135;Laerm;40912;51.552;9.874;2023-05-07T02:44:49;48.16;46.57;51.16;;
53135;Laerm;40912;51.552;9.874;2023-05-07T02:47:09;48.18;47.14;49.38;;
53135;Laerm;40912;51.552;9.874;2023-05-07T02:49:30;48.21;47.15;51.48;;
53135;Laerm;40912;51.552;9.874;2023-05-07T02:51:50;48.22;47.08;51.47;;
53135;Laerm;40912;51.552;9.874;2023-05-07T02:54:10;48.22;47.06;51.61;;
53135;Laerm;40912;51.552;9.874;2023-05-07T02:56:31;48.20;46.80;51.42;;
53135;Laerm;40912;51.552;9.874;2023-05-07T02:58:51;48.19;46.87;51.63;;
53135;Laerm;40912;51.552;9.874;2023-05-07T03:01:11;48.17;46.91;51.25;;
53135;Laerm;40912;51.552;9.874;2023-05-07T03:03:34;48.19;47.18;51.40;;
53135;Laerm;40912;51.552;9.874;2023-05-07T03:05:54;48.19;47.18;51.40;;
53135;Laerm;40912;51.552;9.874;2023-05-07T03:08:14;48.19;47.08;49.39;;
53135;Laerm;40912;51.552;9.874;2023-05-07T03:12:55;48.18;47.04;51.38;;
53135;Laerm;40912;51.552;9.874;2023-05-07T03:17:35;48.16;47.14;49.24;;
53135;Laerm;40912;51.552;9.874;2023-05-07T03:19:55;48.16;47.14;51.50;;
53135;Laerm;40912;51.552;9.874;2023-05-07T03:22:16;48.16;47.11;49.08;;
53135;Laerm;40912;51.552;9.874;2023-05-07T03:26:56;48.18;47.12;51.26;;
53135;Laerm;40912;51.552;9.874;2023-05-07T03:29:17;48.16;46.80;51.31;;
53135;Laerm;40912;51.552;9.874;2023-05-07T03:31:37;48.16;47.04;51.89;;
53135;Laerm;40912;51.552;9.874;2023-05-07T03:33:57;48.16;47.00;49.11;;
53135;Laerm;40912;51.552;9.874;2023-05-07T03:36:18;48.18;47.14;51.37;;
53135;Laerm;40912;51.552;9.874;2023-05-07T03:40:58;48.17;47.16;50.95;;
53135;Laerm;40912;51.552;9.874;2023-05-07T03:43:18;48.18;46.97;49.07;;
53135;Laerm;40912;51.552;9.874;2023-05-07T03:45:39;48.17;47.12;50.79;;
53135;Laerm;40912;51.552;9.874;2023-05-07T03:47:59;48.17;47.00;51.16;;
53135;Laerm;40912;51.552;9.874;2023-05-07T03:50:19;48.16;47.04;51.31;;
53135;Laerm;40912;51.552;9.874;2023-05-07T03:52:39;48.16;47.20;50.99;;
53135;Laerm;40912;51.552;9.874;2023-05-07T03:55:00;48.17;47.02;51.50;;
53135;Laerm;40912;51.552;9.874;2023-05-07T03:57:20;48.18;47.12;51.67;;
53135;Laerm;40912;51.552;9.874;2023-05-07T03:59:40;48.17;47.12;50.95;;
53135;Laerm;40912;51.552;9.874;2023-05-07T04:04:21;48.17;47.02;51.47;;
53135;Laerm;40912;51.552;9.874;2023-05-07T04:06:41;48.17;47.06;49.19;;
53135;Laerm;40912;51.552;9.874;2023-05-07T04:09:01;48.20;47.20;51.68;;
53135;Laerm;40912;51.552;9.874;2023-05-07T04:11:21;48.18;47.02;49.12;;
53135;Laerm;40912;51.552;9.874;2023-05-07T04:13:42;48.20;47.12;49.23;;
53135;Laerm;40912;51.552;9.874;2023-05-07T04:16:02;48.19;47.16;49.36;;
53135;Laerm;40912;51.552;9.874;2023-05-07T04:18:23;48.18;47.04;49.08;;
53135;Laerm;40912;51.552;9.874;2023-05-07T04:20:43;48.19;47.20;50.64;;
53135;Laerm;40912;51.552;9.874;2023-05-07T04:23:03;48.18;47.14;50.97;;
53135;Laerm;40912;51.552;9.874;2023-05-07T04:25:23;48.19;47.04;51.53;;
53135;Laerm;40912;51.552;9.874;2023-05-07T04:27:46;48.18;47.10;51.36;;
53135;Laerm;40912;51.552;9.874;2023-05-07T04:30:06;48.20;47.10;51.26;;
53135;Laerm;40912;51.552;9.874;2023-05-07T04:32:27;48.19;47.12;51.14;;
53135;Laerm;40912;51.552;9.874;2023-05-07T04:34:49;48.18;47.02;51.67;;
53135;Laerm;40912;51.552;9.874;2023-05-07T04:37:09;48.18;47.12;50.70;;
53135;Laerm;40912;51.552;9.874;2023-05-07T04:41:49;48.19;46.89;49.50;;
53135;Laerm;40912;51.552;9.874;2023-05-07T04:44:09;48.20;47.16;51.70;;
53135;Laerm;40912;51.552;9.874;2023-05-07T04:46:30;48.20;46.78;51.56;;
53135;Laerm;40912;51.552;9.874;2023-05-07T04:48:51;48.20;47.15;50.75;;
53135;Laerm;40912;51.552;9.874;2023-05-07T04:51:11;48.21;47.10;50.93;;
53135;Laerm;40912;51.552;9.874;2023-05-07T04:55:54;48.20;46.89;51.21;;
53135;Laerm;40912;51.552;9.874;2023-05-07T04:58:15;48.21;46.91;51.35;;
53135;Laerm;40912;51.552;9.874;2023-05-07T05:00:35;48.21;47.14;51.26;;
53135;Laerm;40912;51.552;9.874;2023-05-07T05:05:15;48.21;47.06;51.37;;
53135;Laerm;40912;51.552;9.874;2023-05-07T05:09:56;48.21;47.22;51.67;;
53135;Laerm;40912;51.552;9.874;2023-05-07T05:12:17;48.20;46.84;51.14;;
53135;Laerm;40912;51.552;9.874;2023-05-07T05:14:37;48.21;47.12;51.39;;
53135;Laerm;40912;51.552;9.874;2023-05-07T05:16:57;48.22;47.19;51.37;;
53135;Laerm;40912;51.552;9.874;2023-05-07T05:19:18;48.21;47.06;51.55;;
53135;Laerm;40912;51.552;9.874;2023-05-07T05:21:38;48.20;47.08;51.19;;
53135;Laerm;40912;51.552;9.874;2023-05-07T05:26:18;48.18;47.16;51.55;;
53135;Laerm;40912;51.552;9.874;2023-05-07T05:30:59;48.17;47.08;51.65;;
53135;Laerm;40912;51.552;9.874;2023-05-07T05:33:19;48.17;47.14;51.08;;
53135;Laerm;40912;51.552;9.874;2023-05-07T05:35:39;48.16;46.89;49.21;;
53135;Laerm;40912;51.552;9.874;2023-05-07T05:37:59;48.17;47.06;50.29;;
53135;Laerm;40912;51.552;9.874;2023-05-07T05:40:20;48.17;46.97;51.15;;
53135;Laerm;40912;51.552;9.874;2023-05-07T05:42:40;48.19;47.08;51.24;;
53135;Laerm;40912;51.552;9.874;2023-05-07T05:45:00;48.20;46.95;51.65;;
53135;Laerm;40912;51.552;9.874;2023-05-07T05:47:20;48.21;47.12;51.47;;
53135;Laerm;40912;51.552;9.874;2023-05-07T05:49:41;48.21;47.12;51.82;;
53135;Laerm;40912;51.552;9.874;2023-05-07T05:52:03;48.21;47.12;51.56;;
53135;Laerm;40912;51.552;9.874;2023-05-07T05:54:23;48.24;47.06;51.56;;
53135;Laerm;40912;51.552;9.874;2023-05-07T05:56:43;48.22;47.00;51.67;;
53135;Laerm;40912;51.552;9.874;2023-05-07T05:59:04;48.20;47.04;51.50;;
53135;Laerm;40912;51.552;9.874;2023-05-07T06:01:24;48.21;47.06;51.72;;
53135;Laerm;40912;51.552;9.874;2023-05-07T06:03:44;48.21;46.93;51.47;;
53135;Laerm;40912;51.552;9.874;2023-05-07T06:06:04;48.21;47.22;51.22;;
53135;Laerm;40912;51.552;9.874;2023-05-07T06:08:25;48.19;47.16;51.34;;
53135;Laerm;40912;51.552;9.874;2023-05-07T06:10:45;48.20;47.16;51.24;;
53135;Laerm;40912;51.552;9.874;2023-05-07T06:13:05;48.18;47.02;51.18;;
53135;Laerm;40912;51.552;9.874;2023-05-07T06:15:28;48.20;47.14;51.33;;
53135;Laerm;40912;51.552;9.874;2023-05-07T06:17:48;48.19;47.20;50.92;;
53135;Laerm;40912;51.552;9.874;2023-05-07T06:20:09;48.18;47.20;49.44;;
53135;Laerm;40912;51.552;9.874;2023-05-07T06:22:29;48.19;47.03;52.05;;
53135;Laerm;40912;51.552;9.874;2023-05-07T06:27:20;48.19;47.12;51.48;;
53135;Laerm;40912;51.552;9.874;2023-05-07T06:29:40;48.19;47.12;51.03;;
53135;Laerm;40912;51.552;9.874;2023-05-07T06:32:07;48.21;47.14;49.45;;
53135;Laerm;40912;51.552;9.874;2023-05-07T06:34:28;48.20;47.14;50.57;;
53135;Laerm;40912;51.552;9.874;2023-05-07T06:39:08;48.19;47.04;49.23;;
53135;Laerm;40912;51.552;9.874;2023-05-07T06:41:28;48.24;47.06;52.26;;
53135;Laerm;40912;51.552;9.874;2023-05-07T06:43:48;48.23;46.69;51.31;;
53135;Laerm;40912;51.552;9.874;2023-05-07T06:46:09;48.23;47.11;51.28;;
53135;Laerm;40912;51.552;9.874;2023-05-07T06:48:29;48.23;47.11;51.28;;
53135;Laerm;40912;51.552;9.874;2023-05-07T06:53:10;48.22;47.02;51.06;;
53135;Laerm;40912;51.552;9.874;2023-05-07T06:55:30;48.21;47.14;51.22;;
53135;Laerm;40912;51.552;9.874;2023-05-07T06:57:50;48.21;47.14;49.39;;
53135;Laerm;40912;51.552;9.874;2023-05-07T07:02:31;48.21;47.17;51.09;;
53135;Laerm;40912;51.552;9.874;2023-05-07T07:07:11;48.24;47.16;51.36;;
53135;Laerm;40912;51.552;9.874;2023-05-07T07:09:32;48.24;47.10;51.16;;
53135;Laerm;40912;51.552;9.874;2023-05-07T07:11:52;48.22;46.97;51.39;;
53135;Laerm;40912;51.552;9.874;2023-05-07T07:14:12;48.22;47.04;49.18;;
53135;Laerm;40912;51.552;9.874;2023-05-07T07:16:33;48.22;47.16;50.97;;
53135;Laerm;40912;51.552;9.874;2023-05-07T07:23:33;48.25;47.24;50.55;;
53135;Laerm;40912;51.552;9.874;2023-05-07T07:25:53;48.25;47.08;51.42;;
53135;Laerm;40912;51.552;9.874;2023-05-07T07:28:13;48.23;46.95;49.33;;
53135;Laerm;40912;51.552;9.874;2023-05-07T07:30:34;48.24;47.24;51.53;;
53135;Laerm;40912;51.552;9.874;2023-05-07T07:32:54;48.22;47.04;51.31;;
53135;Laerm;40912;51.552;9.874;2023-05-07T07:35:18;48.21;47.16;51.57;;
53135;Laerm;40912;51.552;9.874;2023-05-07T07:37:38;48.23;47.24;51.16;;
53135;Laerm;40912;51.552;9.874;2023-05-07T07:42:18;48.23;47.12;51.10;;
53135;Laerm;40912;51.552;9.874;2023-05-07T07:44:38;48.23;47.07;51.52;;
53135;Laerm;40912;51.552;9.874;2023-05-07T07:49:19;48.26;46.93;50.91;;
53135;Laerm;40912;51.552;9.874;2023-05-07T07:51:40;48.24;47.10;51.42;;
53135;Laerm;40912;51.552;9.874;2023-05-07T07:54:00;48.25;47.20;51.59;;
53135;Laerm;40912;51.552;9.874;2023-05-07T07:56:22;48.24;47.08;49.24;;
53135;Laerm;40912;51.552;9.874;2023-05-07T07:58:42;48.25;47.06;51.27;;
53135;Laerm;40912;51.552;9.874;2023-05-07T08:01:03;48.21;47.22;51.83;;
53135;Laerm;40912;51.552;9.874;2023-05-07T08:03:23;48.22;47.12;51.46;;
53135;Laerm;40912;51.552;9.874;2023-05-07T08:05:43;48.22;47.04;51.86;;
53135;Laerm;40912;51.552;9.874;2023-05-07T08:08:04;48.23;47.12;49.29;;
53135;Laerm;40912;51.552;9.874;2023-05-07T08:12:44;48.19;47.08;50.85;;
53135;Laerm;40912;51.552;9.874;2023-05-07T08:15:05;48.21;47.04;51.49;;
53135;Laerm;40912;51.552;9.874;2023-05-07T08:17:25;48.20;47.06;51.51;;
53135;Laerm;40912;51.552;9.874;2023-05-07T08:19:45;48.20;47.10;51.63;;
53135;Laerm;40912;51.552;9.874;2023-05-07T08:22:05;48.20;47.10;50.83;;
53135;Laerm;40912;51.552;9.874;2023-05-07T08:24:26;48.22;47.00;51.88;;
53135;Laerm;40912;51.552;9.874;2023-05-07T08:26:46;48.20;47.07;51.72;;
53135;Laerm;40912;51.552;9.874;2023-05-07T08:29:06;48.21;47.22;51.50;;
53135;Laerm;40912;51.552;9.874;2023-05-07T08:31:27;48.20;47.12;52.02;;
53135;Laerm;40912;51.552;9.874;2023-05-07T08:33:47;48.20;47.16;51.17;;
53135;Laerm;40912;51.552;9.874;2023-05-07T08:36:07;48.19;47.00;49.15;;
53135;Laerm;40912;51.552;9.874;2023-05-07T08:43:08;48.21;47.14;51.42;;
53135;Laerm;40912;51.552;9.874;2023-05-07T08:45:28;48.22;47.16;51.62;;
53135;Laerm;40912;51.552;9.874;2023-05-07T08:47:51;48.21;47.06;50.13;;
53135;Laerm;40912;51.552;9.874;2023-05-07T08:50:12;48.20;46.95;51.16;;
53135;Laerm;40912;51.552;9.874;2023-05-07T08:52:33;48.21;47.08;51.67;;
53135;Laerm;40912;51.552;9.874;2023-05-07T08:57:13;48.19;47.04;50.87;;
53135;Laerm;40912;51.552;9.874;2023-05-07T08:59:34;48.19;47.18;51.87;;
53135;Laerm;40912;51.552;9.874;2023-05-07T09:01:54;48.20;47.20;51.28;;
53135;Laerm;40912;51.552;9.874;2023-05-07T09:04:14;48.20;47.10;50.15;;
53135;Laerm;40912;51.552;9.874;2023-05-07T09:06:34;48.19;46.97;51.66;;
53135;Laerm;40912;51.552;9.874;2023-05-07T09:08:55;48.20;47.16;50.96;;
53135;Laerm;40912;51.552;9.874;2023-05-07T09:11:15;48.19;47.08;51.47;;
53135;Laerm;40912;51.552;9.874;2023-05-07T09:13:35;48.19;47.12;49.11;;
53135;Laerm;40912;51.552;9.874;2023-05-07T09:15:57;48.20;47.19;51.20;;
53135;Laerm;40912;51.552;9.874;2023-05-07T09:18:18;48.21;47.18;51.16;;
53135;Laerm;40912;51.552;9.874;2023-05-07T09:20:39;48.22;47.02;51.33;;
53135;Laerm;40912;51.552;9.874;2023-05-07T09:22:59;48.21;47.04;51.59;;
53135;Laerm;40912;51.552;9.874;2023-05-07T09:27:41;48.22;47.02;51.20;;
53135;Laerm;40912;51.552;9.874;2023-05-07T09:30:07;48.23;47.08;50.25;;
53135;Laerm;40912;51.552;9.874;2023-05-07T09:32:28;48.21;47.06;49.33;;
53135;Laerm;40912;51.552;9.874;2023-05-07T09:34:50;48.22;47.10;52.04;;
53135;Laerm;40912;51.552;9.874;2023-05-07T09:37:11;48.23;47.06;51.25;;
53135;Laerm;40912;51.552;9.874;2023-05-07T09:39:41;48.23;47.08;51.18;;
53135;Laerm;40912;51.552;9.874;2023-05-07T09:42:01;48.25;47.12;51.35;;
53135;Laerm;40912;51.552;9.874;2023-05-07T09:46:42;48.24;46.59;50.89;;
53135;Laerm;40912;51.552;9.874;2023-05-07T09:49:03;48.24;47.02;51.67;;
53135;Laerm;40912;51.552;9.874;2023-05-07T09:51:30;48.22;47.16;51.37;;
53135;Laerm;40912;51.552;9.874;2023-05-07T09:53:54;48.23;47.08;50.49;;
53135;Laerm;40912;51.552;9.874;2023-05-07T09:56:16;48.26;47.24;50.87;;
53135;Laerm;40912;51.552;9.874;2023-05-07T09:58:37;48.27;47.24;51.40;;
53135;Laerm;40912;51.552;9.874;2023-05-07T10:00:59;48.24;47.22;49.49;;
53135;Laerm;40912;51.552;9.874;2023-05-07T10:03:20;48.24;47.24;51.60;;
53135;Laerm;40912;51.552;9.874;2023-05-07T10:05:42;48.24;47.06;51.53;;
53135;Laerm;40912;51.552;9.874;2023-05-07T10:08:04;48.24;47.20;49.27;;
53135;Laerm;40912;51.552;9.874;2023-05-07T10:10:26;48.24;47.02;51.42;;
53135;Laerm;40912;51.552;9.874;2023-05-07T10:12:47;48.24;47.12;51.06;;
53135;Laerm;40912;51.552;9.874;2023-05-07T10:15:11;48.25;47.08;51.17;;
53135;Laerm;40912;51.552;9.874;2023-05-07T10:17:33;48.26;47.00;51.40;;
53135;Laerm;40912;51.552;9.874;2023-05-07T10:19:54;48.25;46.93;51.56;;
53135;Laerm;40912;51.552;9.874;2023-05-07T10:24:35;48.27;47.10;51.22;;
53135;Laerm;40912;51.552;9.874;2023-05-07T10:36:36;48.19;47.12;51.50;;
53135;Laerm;40912;51.552;9.874;2023-05-07T10:41:17;48.21;46.89;50.48;;
53135;Laerm;40912;51.552;9.874;2023-05-07T10:46:17;48.21;46.97;51.51;;
53135;Laerm;40912;51.552;9.874;2023-05-07T10:49:06;48.20;46.91;51.29;;
53135;Laerm;40912;51.552;9.874;2023-05-07T10:51:19;48.20;47.18;51.48;;
53135;Laerm;40912;51.552;9.874;2023-05-07T10:53:40;48.18;47.12;51.11;;
53135;Laerm;40912;51.552;9.874;2023-05-07T10:58:39;48.21;47.02;51.25;;
53135;Laerm;40912;51.552;9.874;2023-05-07T11:03:19;48.20;47.20;51.55;;
53135;Laerm;40912;51.552;9.874;2023-05-07T11:05:42;48.20;47.24;51.10;;
53135;Laerm;40912;51.552;9.874;2023-05-07T11:08:03;48.16;47.04;51.19;;
53135;Laerm;40912;51.552;9.874;2023-05-07T11:10:46;48.18;47.06;50.68;;
53135;Laerm;40912;51.552;9.874;2023-05-07T11:13:04;48.21;47.04;49.28;;
53135;Laerm;40912;51.552;9.874;2023-05-07T11:15:35;48.22;47.02;51.55;;
53135;Laerm;40912;51.552;9.874;2023-05-07T11:17:56;48.22;47.02;50.89;;
53135;Laerm;40912;51.552;9.874;2023-05-07T11:20:17;48.19;47.16;51.37;;
53135;Laerm;40912;51.552;9.874;2023-05-07T11:25:00;48.25;47.17;51.40;;
53135;Laerm;40912;51.552;9.874;2023-05-07T11:27:23;48.24;47.05;51.44;;
53135;Laerm;40912;51.552;9.874;2023-05-07T11:29:46;48.25;47.16;50.88;;
53135;Laerm;40912;51.552;9.874;2023-05-07T11:32:06;48.29;47.32;49.49;;
53135;Laerm;40912;51.552;9.874;2023-05-07T11:34:26;48.34;46.91;51.14;;
53135;Laerm;40912;51.552;9.874;2023-05-07T11:36:47;48.29;47.26;51.23;;
53135;Laerm;40912;51.552;9.874;2023-05-07T11:39:22;48.27;47.12;51.35;;
53135;Laerm;40912;51.552;9.874;2023-05-07T11:41:42;48.26;47.18;51.47;;
53135;Laerm;40912;51.552;9.874;2023-05-07T11:46:23;48.23;47.18;51.27;;
53135;Laerm;40912;51.552;9.874;2023-05-07T11:48:43;48.22;47.02;51.21;;
53135;Laerm;40912;51.552;9.874;2023-05-07T11:53:27;48.23;46.66;51.04;;
53135;Laerm;40912;51.552;9.874;2023-05-07T11:55:47;48.22;47.00;49.49;;
53135;Laerm;40912;51.552;9.874;2023-05-07T11:58:12;48.22;47.08;49.19;;
53135;Laerm;40912;51.552;9.874;2023-05-07T12:00:32;48.25;47.20;51.13;;
53135;Laerm;40912;51.552;9.874;2023-05-07T12:02:53;48.26;47.10;51.17;;
53135;Laerm;40912;51.552;9.874;2023-05-07T12:05:13;48.26;47.08;51.56;;
53135;Laerm;40912;51.552;9.874;2023-05-07T12:07:33;48.33;47.18;51.52;;
53135;Laerm;40912;51.552;9.874;2023-05-07T12:09:54;48.27;47.08;51.01;;
53135;Laerm;40912;51.552;9.874;2023-05-07T12:12:14;48.28;47.22;50.44;;
53135;Laerm;40912;51.552;9.874;2023-05-07T12:14:39;48.30;47.10;51.05;;
53135;Laerm;40912;51.552;9.874;2023-05-07T12:17:00;48.33;47.18;51.30;;
53135;Laerm;40912;51.552;9.874;2023-05-07T12:19:22;48.28;47.22;51.38;;
53135;Laerm;40912;51.552;9.874;2023-05-07T12:21:43;48.31;47.22;51.40;;
53135;Laerm;40912;51.552;9.874;2023-05-07T12:24:03;48.31;47.24;51.34;;
53135;Laerm;40912;51.552;9.874;2023-05-07T12:26:23;48.32;47.06;51.53;;
53135;Laerm;40912;51.552;9.874;2023-05-07T12:28:44;48.33;47.20;50.84;;
53135;Laerm;40912;51.552;9.874;2023-05-07T12:31:04;48.37;47.40;49.49;;
53135;Laerm;40912;51.552;9.874;2023-05-07T12:38:09;48.35;47.17;51.32;;
53135;Laerm;40912;51.552;9.874;2023-05-07T12:42:52;48.39;47.28;51.29;;
53135;Laerm;40912;51.552;9.874;2023-05-07T12:45:15;48.37;47.14;51.30;;
53135;Laerm;40912;51.552;9.874;2023-05-07T12:47:35;48.42;47.35;51.40;;
53135;Laerm;40912;51.552;9.874;2023-05-07T12:52:16;48.43;47.36;51.34;;
53135;Laerm;40912;51.552;9.874;2023-05-07T12:57:04;48.38;47.24;51.30;;
53135;Laerm;40912;51.552;9.874;2023-05-07T12:59:38;48.44;47.28;51.02;;
53135;Laerm;40912;51.552;9.874;2023-05-07T13:01:59;48.46;47.48;51.38;;
53135;Laerm;40912;51.552;9.874;2023-05-07T13:04:19;48.48;47.38;50.69;;
53135;Laerm;40912;51.552;9.874;2023-05-07T13:06:41;48.46;47.22;50.04;;
53135;Laerm;40912;51.552;9.874;2023-05-07T13:09:01;48.55;47.32;51.42;;
53135;Laerm;40912;51.552;9.874;2023-05-07T13:11:21;48.53;47.46;51.08;;
53135;Laerm;40912;51.552;9.874;2023-05-07T13:13:42;48.50;47.40;51.33;;
53135;Laerm;40912;51.552;9.874;2023-05-07T13:16:03;48.59;47.46;51.56;;
53135;Laerm;40912;51.552;9.874;2023-05-07T13:18:26;48.53;47.46;51.43;;
53135;Laerm;40912;51.552;9.874;2023-05-07T13:20:47;48.51;47.44;51.32;;
53135;Laerm;40912;51.552;9.874;2023-05-07T13:23:07;48.50;47.38;51.48;;
53135;Laerm;40912;51.552;9.874;2023-05-07T13:30:07;48.59;47.44;51.29;;
53135;Laerm;40912;51.552;9.874;2023-05-07T13:32:28;48.55;47.36;51.26;;
53135;Laerm;40912;51.552;9.874;2023-05-07T13:37:08;48.57;47.38;51.40;;
53135;Laerm;40912;51.552;9.874;2023-05-07T13:39:28;48.53;47.24;51.47;;
53135;Laerm;40912;51.552;9.874;2023-05-07T13:41:49;48.58;47.46;51.33;;
53135;Laerm;40912;51.552;9.874;2023-05-07T13:44:09;48.55;47.40;51.51;;
53135;Laerm;40912;51.552;9.874;2023-05-07T13:46:29;48.49;47.36;51.09;;
53135;Laerm;40912;51.552;9.874;2023-05-07T13:48:50;48.62;47.34;51.44;;
53135;Laerm;40912;51.552;9.874;2023-05-07T13:51:11;48.51;47.16;50.98;;
53135;Laerm;40912;51.552;9.874;2023-05-07T13:53:31;48.51;47.42;50.64;;
53135;Laerm;40912;51.552;9.874;2023-05-07T13:55:51;48.53;47.46;50.51;;
53135;Laerm;40912;51.552;9.874;2023-05-07T13:58:12;48.50;47.42;51.33;;
53135;Laerm;40912;51.552;9.874;2023-05-07T14:00:32;48.50;47.42;51.33;;
53135;Laerm;40912;51.552;9.874;2023-05-07T14:02:52;48.50;47.40;51.77;;
53135;Laerm;40912;51.552;9.874;2023-05-07T14:05:12;48.58;47.52;51.33;;
53135;Laerm;40912;51.552;9.874;2023-05-07T14:07:33;48.61;47.59;49.67;;
53135;Laerm;40912;51.552;9.874;2023-05-07T14:12:13;48.59;47.36;51.40;;
53135;Laerm;40912;51.552;9.874;2023-05-07T14:14:34;48.57;47.44;51.53;;
53135;Laerm;40912;51.552;9.874;2023-05-07T14:16:54;48.48;47.14;50.58;;
53135;Laerm;40912;51.552;9.874;2023-05-07T14:19:14;48.47;47.42;51.20;;
53135;Laerm;40912;51.552;9.874;2023-05-07T14:21:34;48.45;47.34;50.55;;
53135;Laerm;40912;51.552;9.874;2023-05-07T14:23:54;48.48;47.26;50.92;;
53135;Laerm;40912;51.552;9.874;2023-05-07T14:26:16;48.48;47.38;49.97;;
53135;Laerm;40912;51.552;9.874;2023-05-07T14:28:36;48.50;47.34;50.98;;
53135;Laerm;40912;51.552;9.874;2023-05-07T14:30:59;48.50;47.18;51.70;;
53135;Laerm;40912;51.552;9.874;2023-05-07T14:33:19;48.41;47.16;51.19;;
53135;Laerm;40912;51.552;9.874;2023-05-07T14:35:40;48.51;47.32;51.54;;
53135;Laerm;40912;51.552;9.874;2023-05-07T14:38:00;48.48;47.41;51.39;;
53135;Laerm;40912;51.552;9.874;2023-05-07T14:40:20;48.42;47.36;51.04;;
53135;Laerm;40912;51.552;9.874;2023-05-07T14:42:40;48.44;47.40;51.02;;
53135;Laerm;40912;51.552;9.874;2023-05-07T14:47:21;48.51;47.32;51.30;;
53135;Laerm;40912;51.552;9.874;2023-05-07T14:49:41;48.44;47.22;51.76;;
53135;Laerm;40912;51.552;9.874;2023-05-07T14:52:02;48.44;47.22;51.76;;
53135;Laerm;40912;51.552;9.874;2023-05-07T14:54:22;48.44;47.06;51.62;;
53135;Laerm;40912;51.552;9.874;2023-05-07T14:56:43;48.48;47.26;51.17;;
53135;Laerm;40912;51.552;9.874;2023-05-07T14:59:03;48.61;47.54;51.53;;
53135;Laerm;40912;51.552;9.874;2023-05-07T15:01:24;48.63;47.46;51.06;;
53135;Laerm;40912;51.552;9.874;2023-05-07T15:03:45;48.57;47.40;51.79;;
53135;Laerm;40912;51.552;9.874;2023-05-07T15:06:05;48.63;47.50;51.46;;
53135;Laerm;40912;51.552;9.874;2023-05-07T15:10:45;48.66;47.28;51.58;;
53135;Laerm;40912;51.552;9.874;2023-05-07T15:13:09;48.68;47.65;51.30;;
53135;Laerm;40912;51.552;9.874;2023-05-07T15:15:29;48.67;47.50;51.27;;
53135;Laerm;40912;51.552;9.874;2023-05-07T15:17:49;48.66;47.42;51.37;;
53135;Laerm;40912;51.552;9.874;2023-05-07T15:20:10;48.56;47.50;51.28;;
53135;Laerm;40912;51.552;9.874;2023-05-07T15:22:30;48.58;47.30;51.56;;
53135;Laerm;40912;51.552;9.874;2023-05-07T15:24:51;48.70;47.57;51.24;;
53135;Laerm;40912;51.552;9.874;2023-05-07T15:27:11;48.58;47.52;51.01;;
53135;Laerm;40912;51.552;9.874;2023-05-07T15:29:31;48.60;47.54;51.56;;
53135;Laerm;40912;51.552;9.874;2023-05-07T15:31:51;48.61;46.95;51.68;;